Sinclair, Illinois
Current Conditions -  °F | °C
As of 9:15 PM on Tuesday 25 Nov 2014 (Local Time) from KIJX Reporting Station
Clear Clear  
Wind Chill: 23°   Ceiling: Unl
Heat Index: 28°   Visibility: 10mi
Dew Point: 24°   Wind: 5mph
Humidity: 84%   Direction: 120°ESE
Pressure: 30.17"   Gusts: NA
Location:  39.7413°N, 90.2138°W
Report Text: KIJX 260315Z AUTO 12004KT 10SM CLR M02/M04 A3017 RMK AO2 T10211045
Loading
Personal Weather Stations






























Interactive Weather Map New forecast layout! Learn more

10-Day Weather Forecast

Advertisements
Track Severe Weather on mobile